NCAR-RAP Real-Time Weather Data

Output produced by METARs form (17 January 2018  22:23 UTC)
found at http://weather.rap.ucar.edu/surface/
 
Conditions at: KPGD observed 17 January 2018  21:53 UTC
Temperature: 17.8°C (64°F)
Dewpoint: 10.6°C (51°F) [RH = 63%]
Pressure (altimeter): 30.23 inches Hg (1023.8 mb)
[Sea-level pressure: 1023.8 mb]
Winds: from the NW (320 degrees) at 17 MPH (15 knots; 7.8 m/s)
Visibility: 10 or more miles (16+ km)
Ceiling: at least 12,000 feet AGL
Clouds: sky clear below 12,000 feet AGL
Present Weather: no significant weather observed at this time
KPGD 172153Z 32015KT 10SM CLR 18/11 A3023 RMK AO2 SLP238 T01780106

Conditions at: KPGD observed 17 January 2018  20:53 UTC
Temperature: 21.1°C (70°F)
Dewpoint: 8.3°C (47°F) [RH = 44%]
Pressure (altimeter): 30.21 inches Hg (1023.1 mb)
[Sea-level pressure: 1022.9 mb]
Winds: from the W (280 degrees) at 14 MPH (12 knots; 6.2 m/s)
Visibility: 10 or more miles (16+ km)
Ceiling: at least 12,000 feet AGL
Clouds: sky clear below 12,000 feet AGL
Present Weather: no significant weather observed at this time
KPGD 172053Z 28012KT 10SM CLR 21/08 A3021 RMK AO2 SLP229 T02110083 55013

Conditions at: KPGD observed 17 January 2018  19:53 UTC
Temperature: 22.2°C (72°F)
Dewpoint: 7.8°C (46°F) [RH = 40%]
Pressure (altimeter): 30.20 inches Hg (1022.8 mb)
[Sea-level pressure: 1022.7 mb]
Winds: from the W (280 degrees) at 16 MPH (14 knots; 7.3 m/s)
Visibility: 10 or more miles (16+ km)
Ceiling: at least 12,000 feet AGL
Clouds: sky clear below 12,000 feet AGL
Present Weather: no significant weather observed at this time
KPGD 171953Z 28014KT 10SM CLR 22/08 A3020 RMK AO2 SLP227 T02220078

Conditions at: KPGD observed 17 January 2018  18:53 UTC
Temperature: 22.8°C (73°F)
Dewpoint: 8.3°C (47°F) [RH = 39%]
Pressure (altimeter): 30.21 inches Hg (1023.1 mb)
[Sea-level pressure: 1023.1 mb]
Winds: from the W (280 degrees) at 10 MPH (9 knots; 4.7 m/s)
Visibility: 10 or more miles (16+ km)
Ceiling: at least 12,000 feet AGL
Clouds: sky clear below 12,000 feet AGL
Present Weather: no significant weather observed at this time
KPGD 171853Z 28009KT 10SM CLR 23/08 A3021 RMK AO2 SLP231 T02280083

Conditions at: KPGD observed 17 January 2018  17:53 UTC
Temperature: 22.8°C (73°F)
Dewpoint: 8.9°C (48°F) [RH = 41%]
Pressure (altimeter): 30.24 inches Hg (1024.1 mb)
[Sea-level pressure: 1024.1 mb]
Winds: from the NW (310 degrees) at 10 MPH (9 knots; 4.7 m/s)
Visibility: 10 or more miles (16+ km)
Ceiling: at least 12,000 feet AGL
Clouds: sky clear below 12,000 feet AGL
Present Weather: no significant weather observed at this time
KPGD 171753Z 31009KT 10SM CLR 23/09 A3024 RMK AO2 SLP241 T02280089 10228 20067 58016

Conditions at: KPGD observed 17 January 2018  16:53 UTC
Temperature: 21.1°C (70°F)
Dewpoint: 9.4°C (49°F) [RH = 47%]
Pressure (altimeter): 30.27 inches Hg (1025.1 mb)
[Sea-level pressure: 1025.1 mb]
Winds: variable direction winds at 5 MPH (4 knots; 2.1 m/s)
Visibility: 10 or more miles (16+ km)
Ceiling: at least 12,000 feet AGL
Clouds: sky clear below 12,000 feet AGL
Present Weather: no significant weather observed at this time
KPGD 171653Z VRB04KT 10SM CLR 21/09 A3027 RMK AO2 SLP251 T02110094

Conditions at: KPGD observed 17 January 2018  15:53 UTC
Temperature: 19.4°C (67°F)
Dewpoint: 11.1°C (52°F) [RH = 59%]
Pressure (altimeter): 30.29 inches Hg (1025.8 mb)
[Sea-level pressure: 1025.6 mb]
Winds: from the NW (320 degrees) at 3 MPH (3 knots; 1.6 m/s)
Visibility: 10 or more miles (16+ km)
Ceiling: at least 12,000 feet AGL
Clouds: sky clear below 12,000 feet AGL
Present Weather: no significant weather observed at this time
KPGD 171553Z 32003KT 10SM CLR 19/11 A3029 RMK AO2 SLP256 T01940111

Conditions at: KPGD observed 17 January 2018  14:53 UTC
Temperature: 16.1°C (61°F)
Dewpoint: 11.7°C (53°F) [RH = 75%]
Pressure (altimeter): 30.29 inches Hg (1025.8 mb)
[Sea-level pressure: 1025.7 mb]
Winds: from the ENE (60 degrees) at 5 MPH (4 knots; 2.1 m/s)
Visibility: 10 or more miles (16+ km)
Ceiling: at least 12,000 feet AGL
Clouds: sky clear below 12,000 feet AGL
Present Weather: no significant weather observed at this time
KPGD 171453Z 06004KT 10SM CLR 16/12 A3029 RMK AO2 SLP257 T01610117 50009

Conditions at: KPGD observed 17 January 2018  13:53 UTC
Temperature: 12.2°C (54°F)
Dewpoint: 11.1°C (52°F) [RH = 93%]
Pressure (altimeter): 30.29 inches Hg (1025.8 mb)
[Sea-level pressure: 1025.8 mb]
Winds: from the N (10 degrees) at 5 MPH (4 knots; 2.1 m/s)
Visibility: 4 miles (6 km)
Ceiling: at least 12,000 feet AGL
Clouds: sky clear below 12,000 feet AGL
Present Weather: BR  (mist)
KPGD 171353Z 01004KT 4SM BR CLR 12/11 A3029 RMK AO2 SLP258 T01220111

Conditions at: KPGD observed 17 January 2018  13:30 UTC
Temperature: 11.7°C (53°F)
Dewpoint: 10.6°C (51°F) [RH = 93%]
Pressure (altimeter): 30.29 inches Hg (1025.8 mb)
Winds: from the N (360 degrees) at 3 MPH (3 knots; 1.6 m/s)
Visibility: 4 miles (6 km)
Ceiling: at least 12,000 feet AGL
Clouds: sky clear below 12,000 feet AGL
Present Weather: BR  (mist)
KPGD 171330Z 36003KT 4SM BR CLR 12/11 A3029 RMK AO2 T01170106

Conditions at: KPGD observed 17 January 2018  12:53 UTC
Temperature: 7.8°C (46°F)
Dewpoint: 7.2°C (45°F) [RH = 96%]
Pressure (altimeter): 30.28 inches Hg (1025.5 mb)
[Sea-level pressure: 1025.3 mb]
Winds: from the N (10 degrees) at 5 MPH (4 knots; 2.1 m/s)
Visibility: 2.00 miles (3.22 km)
Ceiling: at least 12,000 feet AGL
Clouds: sky clear below 12,000 feet AGL
Present Weather: BR  (mist)
KPGD 171253Z 01004KT 2SM BR CLR 08/07 A3028 RMK AO2 SLP253 T00780072

Conditions at: KPGD observed 17 January 2018  12:17 UTC
Temperature: 7.2°C (45°F)
Dewpoint: 6.7°C (44°F) [RH = 97%]
Pressure (altimeter): 30.27 inches Hg (1025.1 mb)
Winds: from the NNE (20 degrees) at 5 MPH (4 knots; 2.1 m/s)
Visibility: 2.00 miles (3.22 km)
Ceiling: at least 12,000 feet AGL
Clouds: sky clear below 12,000 feet AGL
Present Weather: BR  (mist)
KPGD 171217Z 02004KT 2SM BR CLR 07/07 A3027 RMK AO2 T00720067

Conditions at: KPGD observed 17 January 2018  11:53 UTC
Temperature: 7.2°C (45°F)
Dewpoint: 6.7°C (44°F) [RH = 97%]
Pressure (altimeter): 30.26 inches Hg (1024.8 mb)
[Sea-level pressure: 1024.8 mb]
Winds: from the NNE (20 degrees) at 3 MPH (3 knots; 1.6 m/s)
Visibility: 10 or more miles (16+ km)
Ceiling: at least 12,000 feet AGL
Clouds: sky clear below 12,000 feet AGL
Present Weather: no significant weather observed at this time
KPGD 171153Z 02003KT 10SM CLR 07/07 A3026 RMK AO2 SLP248 T00720067 10106 20067 53011

Conditions at: KPGD observed 17 January 2018  10:53 UTC
Temperature: 7.2°C (45°F)
Dewpoint: 6.1°C (43°F) [RH = 93%]
Pressure (altimeter): 30.24 inches Hg (1024.1 mb)
[Sea-level pressure: 1024.2 mb]
Winds: from the NNE (30 degrees) at 5 MPH (4 knots; 2.1 m/s)
Visibility: 10 or more miles (16+ km)
Ceiling: at least 12,000 feet AGL
Clouds: sky clear below 12,000 feet AGL
Present Weather: no significant weather observed at this time
KPGD 171053Z 03004KT 10SM CLR 07/06 A3024 RMK AO2 SLP242 T00720061

Conditions at: KPGD observed 17 January 2018  10:37 UTC
Temperature: 8.3°C (47°F)
Dewpoint: 7.8°C (46°F) [RH = 97%]
Pressure (altimeter): 30.24 inches Hg (1024.1 mb)
Winds: from the NNE (20 degrees) at 3 MPH (3 knots; 1.6 m/s)
Visibility: 10 or more miles (16+ km)
Ceiling: at least 12,000 feet AGL
Clouds: sky clear below 12,000 feet AGL
Present Weather: no significant weather observed at this time
KPGD 171037Z 02003KT 10SM CLR 08/08 A3024 RMK AO2 T00830078

Conditions at: KPGD observed 17 January 2018  10:03 UTC
Temperature: 7.8°C (46°F)
Dewpoint: 6.7°C (44°F) [RH = 93%]
Pressure (altimeter): 30.24 inches Hg (1024.1 mb)
Winds: from the N (360 degrees) at 3 MPH (3 knots; 1.6 m/s)
Visibility: 0.75 miles (1.21 km)
Ceiling: indefinite ceiling with vertical visibility of 200 feet AGL
Clouds: obscured sky
Present Weather: BR  (mist)
KPGD 171003Z AUTO 36003KT 3/4SM BR VV002 08/07 A3024 RMK AO2 T00780067

Conditions at: KPGD observed 17 January 2018  10:00 UTC
Temperature: 7.8°C (46°F)
Dewpoint: 7.2°C (45°F) [RH = 96%]
Pressure (altimeter): 30.24 inches Hg (1024.1 mb)
Winds: calm
Visibility: 1.25 miles (2.01 km)
Ceiling: at least 12,000 feet AGL
Clouds: few clouds at 200 feet AGL
Present Weather: BR  (mist)
KPGD 171000Z AUTO 00000KT 1 1/4SM BR FEW002 08/07 A3024 RMK AO2 T00780072

Conditions at: KPGD observed 17 January 2018  09:53 UTC
Temperature: 8.3°C (47°F)
Dewpoint: 7.2°C (45°F) [RH = 93%]
Pressure (altimeter): 30.23 inches Hg (1023.8 mb)
[Sea-level pressure: 1023.8 mb]
Winds: calm
Visibility: 0.50 miles (0.80 km)
Ceiling: at least 12,000 feet AGL
Clouds: sky clear below 12,000 feet AGL
Present Weather: FG  (fog)
KPGD 170953Z AUTO 00000KT 1/2SM FG CLR 08/07 A3023 RMK AO2 SLP238 T00830072

Conditions at: KPGD observed 17 January 2018  09:03 UTC
Temperature: 9.4°C (49°F)
Dewpoint: 8.3°C (47°F) [RH = 93%]
Pressure (altimeter): 30.23 inches Hg (1023.8 mb)
Winds: calm
Visibility: 0.50 miles (0.80 km)
Ceiling: at least 12,000 feet AGL
Clouds: sky clear below 12,000 feet AGL
Present Weather: FG  (fog)
KPGD 170903Z AUTO 00000KT 1/2SM FG CLR 09/08 A3023 RMK AO2 T00940083

Conditions at: KPGD observed 17 January 2018  08:53 UTC
Temperature: 9.4°C (49°F)
Dewpoint: 8.3°C (47°F) [RH = 93%]
Pressure (altimeter): 30.23 inches Hg (1023.8 mb)
[Sea-level pressure: 1023.7 mb]
Winds: calm
Visibility: 1.50 miles (2.41 km)
Ceiling: at least 12,000 feet AGL
Clouds: sky clear below 12,000 feet AGL
Present Weather: BR  (mist)
KPGD 170853Z AUTO 00000KT 1 1/2SM BR CLR 09/08 A3023 RMK AO2 SLP237 T00940083 56016

Conditions at: KPGD observed 17 January 2018  08:46 UTC
Temperature: 9.4°C (49°F)
Dewpoint: 7.8°C (46°F) [RH = 90%]
Pressure (altimeter): 30.23 inches Hg (1023.8 mb)
Winds: calm
Visibility: 2.50 miles (4.02 km)
Ceiling: at least 12,000 feet AGL
Clouds: sky clear below 12,000 feet AGL
Present Weather: BR  (mist)
KPGD 170846Z AUTO 00000KT 2 1/2SM BR CLR 09/08 A3023 RMK AO2 T00940078

Conditions at: KPGD observed 17 January 2018  08:33 UTC
Temperature: 8.9°C (48°F)
Dewpoint: 7.8°C (46°F) [RH = 93%]
Pressure (altimeter): 30.24 inches Hg (1024.1 mb)
Winds: calm
Visibility: 0.50 miles (0.80 km)
Ceiling: at least 12,000 feet AGL
Clouds: sky clear below 12,000 feet AGL
Present Weather: FG  (fog)
KPGD 170833Z AUTO 00000KT 1/2SM FG CLR 09/08 A3024 RMK AO2 T00890078

Conditions at: KPGD observed 17 January 2018  08:23 UTC
Temperature: 8.9°C (48°F)
Dewpoint: 7.2°C (45°F) [RH = 89%]
Pressure (altimeter): 30.23 inches Hg (1023.8 mb)
Winds: calm
Visibility: 1.75 miles (2.82 km)
Ceiling: at least 12,000 feet AGL
Clouds: sky clear below 12,000 feet AGL
Present Weather: BR  (mist)
KPGD 170823Z AUTO 00000KT 1 3/4SM BR CLR 09/07 A3023 RMK AO2 T00890072

Conditions at: KPGD observed 17 January 2018  07:53 UTC
Temperature: 8.9°C (48°F)
Dewpoint: 7.8°C (46°F) [RH = 93%]
Pressure (altimeter): 30.24 inches Hg (1024.1 mb)
[Sea-level pressure: 1023.9 mb]
Winds: from the NNE (20 degrees) at 3 MPH (3 knots; 1.6 m/s)
Visibility: 9 miles (14 km)
Ceiling: at least 12,000 feet AGL
Clouds: sky clear below 12,000 feet AGL
Present Weather: automated observation with no human augmentation;
there may or may not be significant weather present at this time
KPGD 170753Z AUTO 02003KT 9SM CLR 09/08 A3024 RMK AO2 SLP239 T00890078

Conditions at: KPGD observed 17 January 2018  06:53 UTC
Temperature: 9.4°C (49°F)
Dewpoint: 7.8°C (46°F) [RH = 90%]
Pressure (altimeter): 30.25 inches Hg (1024.5 mb)
[Sea-level pressure: 1024.4 mb]
Winds: calm
Visibility: 10 or more miles (16+ km)
Ceiling: at least 12,000 feet AGL
Clouds: sky clear below 12,000 feet AGL
Present Weather: automated observation with no human augmentation;
there may or may not be significant weather present at this time
KPGD 170653Z AUTO 00000KT 10SM CLR 09/08 A3025 RMK AO2 SLP244 T00940078

Conditions at: KPGD observed 17 January 2018  05:53 UTC
Temperature: 10.6°C (51°F)
Dewpoint: 8.9°C (48°F) [RH = 89%]
Pressure (altimeter): 30.28 inches Hg (1025.5 mb)
[Sea-level pressure: 1025.3 mb]
Winds: from the NNE (20 degrees) at 5 MPH (4 knots; 2.1 m/s)
Visibility: 10 or more miles (16+ km)
Ceiling: at least 12,000 feet AGL
Clouds: sky clear below 12,000 feet AGL
Present Weather: automated observation with no human augmentation;
there may or may not be significant weather present at this time
KPGD 170553Z AUTO 02004KT 10SM CLR 11/09 A3028 RMK AO2 SLP253 T01060089 10161 20106 58006

Conditions at: KPGD observed 17 January 2018  04:53 UTC
Temperature: 11.7°C (53°F)
Dewpoint: 8.3°C (47°F) [RH = 80%]
Pressure (altimeter): 30.29 inches Hg (1025.8 mb)
[Sea-level pressure: 1025.6 mb]
Winds: calm
Visibility: 10 or more miles (16+ km)
Ceiling: at least 12,000 feet AGL
Clouds: sky clear below 12,000 feet AGL
Present Weather: automated observation with no human augmentation;
there may or may not be significant weather present at this time
KPGD 170453Z AUTO 00000KT 10SM CLR 12/08 A3029 RMK AO2 SLP256 T01170083 402500089

Conditions at: KPGD observed 17 January 2018  03:53 UTC
Temperature: 11.7°C (53°F)
Dewpoint: 8.3°C (47°F) [RH = 80%]
Pressure (altimeter): 30.29 inches Hg (1025.8 mb)
[Sea-level pressure: 1025.9 mb]
Winds: from the NNE (30 degrees) at 5 MPH (4 knots; 2.1 m/s)
Visibility: 10 or more miles (16+ km)
Ceiling: at least 12,000 feet AGL
Clouds: sky clear below 12,000 feet AGL
Present Weather: automated observation with no human augmentation;
there may or may not be significant weather present at this time
KPGD 170353Z AUTO 03004KT 10SM CLR 12/08 A3029 RMK AO2 SLP259 T01170083

Conditions at: KPGD observed 17 January 2018  02:53 UTC
Temperature: 12.2°C (54°F)
Dewpoint: 8.3°C (47°F) [RH = 77%]
Pressure (altimeter): 30.30 inches Hg (1026.2 mb)
[Sea-level pressure: 1025.9 mb]
Winds: from the NE (50 degrees) at 6 MPH (5 knots; 2.6 m/s)
Visibility: 10 or more miles (16+ km)
Ceiling: at least 12,000 feet AGL
Clouds: sky clear below 12,000 feet AGL
Present Weather: automated observation with no human augmentation;
there may or may not be significant weather present at this time
KPGD 170253Z AUTO 05005KT 10SM CLR 12/08 A3030 RMK AO2 SLP259 T01220083 51011

Conditions at: KPGD observed 17 January 2018  01:53 UTC
Temperature: 12.8°C (55°F)
Dewpoint: 8.3°C (47°F) [RH = 74%]
Pressure (altimeter): 30.28 inches Hg (1025.5 mb)
[Sea-level pressure: 1025.4 mb]
Winds: from the NE (50 degrees) at 9 MPH (8 knots; 4.2 m/s)
Visibility: 10 or more miles (16+ km)
Ceiling: at least 12,000 feet AGL
Clouds: sky clear below 12,000 feet AGL
Present Weather: no significant weather observed at this time
KPGD 170153Z 05008KT 10SM CLR 13/08 A3028 RMK AO2 SLP254 T01280083

Conditions at: KPGD observed 17 January 2018  00:53 UTC
Temperature: 14.4°C (58°F)
Dewpoint: 8.9°C (48°F) [RH = 70%]
Pressure (altimeter): 30.28 inches Hg (1025.5 mb)
[Sea-level pressure: 1025.4 mb]
Winds: from the NE (50 degrees) at 5 MPH (4 knots; 2.1 m/s)
Visibility: 10 or more miles (16+ km)
Ceiling: at least 12,000 feet AGL
Clouds: sky clear below 12,000 feet AGL
Present Weather: no significant weather observed at this time
KPGD 170053Z 05004KT 10SM CLR 14/09 A3028 RMK AO2 SLP254 T01440089

Conditions at: KPGD observed 16 January 2018  23:53 UTC
Temperature: 15.6°C (60°F)
Dewpoint: 8.9°C (48°F) [RH = 64%]
Pressure (altimeter): 30.26 inches Hg (1024.8 mb)
[Sea-level pressure: 1024.8 mb]
Winds: from the NNE (30 degrees) at 7 MPH (6 knots; 3.1 m/s)
Visibility: 10 or more miles (16+ km)
Ceiling: at least 12,000 feet AGL
Clouds: sky clear below 12,000 feet AGL
Present Weather: no significant weather observed at this time
KPGD 162353Z 03006KT 10SM CLR 16/09 A3026 RMK AO2 SLP248 T01560089 10250 20156 55000

Conditions at: KPGD observed 16 January 2018  22:53 UTC
Temperature: 19.4°C (67°F)
Dewpoint: 8.9°C (48°F) [RH = 51%]
Pressure (altimeter): 30.26 inches Hg (1024.8 mb)
[Sea-level pressure: 1024.7 mb]
Winds: from the NNE (20 degrees) at 7 MPH (6 knots; 3.1 m/s)
Visibility: 10 or more miles (16+ km)
Ceiling: at least 12,000 feet AGL
Clouds: sky clear below 12,000 feet AGL
Present Weather: no significant weather observed at this time
KPGD 162253Z 02006KT 10SM CLR 19/09 A3026 RMK AO2 SLP247 T01940089

Conditions at: KPGD observed 16 January 2018  21:53 UTC
Temperature: 22.8°C (73°F)
Dewpoint: 8.9°C (48°F) [RH = 41%]
Pressure (altimeter): 30.26 inches Hg (1024.8 mb)
[Sea-level pressure: 1024.6 mb]
Winds: from the N (10 degrees) at 7 MPH (6 knots; 3.1 m/s)
Visibility: 10 or more miles (16+ km)
Ceiling: at least 12,000 feet AGL
Clouds: scattered clouds at 7000 feet AGL
Present Weather: no significant weather observed at this time
KPGD 162153Z 01006KT 10SM SCT070 23/09 A3026 RMK AO2 SLP246 T02280089

Conditions at: KPGD observed 16 January 2018  20:53 UTC
Temperature: 23.3°C (74°F)
Dewpoint: 7.8°C (46°F) [RH = 37%]
Pressure (altimeter): 30.26 inches Hg (1024.8 mb)
[Sea-level pressure: 1024.8 mb]
Winds: from the NNE (30 degrees) at 10 MPH (9 knots; 4.7 m/s)
Visibility: 10 or more miles (16+ km)
Ceiling: 6500 feet AGL
Clouds: broken clouds at 6500 feet AGL
Present Weather: no significant weather observed at this time
KPGD 162053Z 03009KT 10SM BKN065 23/08 A3026 RMK AO2 SLP248 T02330078 55015

Conditions at: KPGD observed 16 January 2018  19:53 UTC
Temperature: 23.3°C (74°F)
Dewpoint: 7.8°C (46°F) [RH = 37%]
Pressure (altimeter): 30.25 inches Hg (1024.5 mb)
[Sea-level pressure: 1024.3 mb]
Winds: from the NE (50 degrees) at 9 MPH (8 knots; 4.2 m/s)
Visibility: 10 or more miles (16+ km)
Ceiling: at least 12,000 feet AGL
Clouds: few clouds at 6000 feet AGL
Present Weather: no significant weather observed at this time
KPGD 161953Z 05008KT 10SM FEW060 23/08 A3025 RMK AO2 SLP243 T02330078

Conditions at: KPGD observed 16 January 2018  18:53 UTC
Temperature: 23.9°C (75°F)
Dewpoint: 8.3°C (47°F) [RH = 37%]
Pressure (altimeter): 30.27 inches Hg (1025.1 mb)
[Sea-level pressure: 1025.0 mb]
Winds: variable direction winds at 7 MPH (6 knots; 3.1 m/s)
Visibility: 10 or more miles (16+ km)
Ceiling: at least 12,000 feet AGL
Clouds: few clouds at 6000 feet AGL
Present Weather: no significant weather observed at this time
KPGD 161853Z VRB06KT 10SM FEW060 24/08 A3027 RMK AO2 SLP250 T02390083

Conditions at: KPGD observed 16 January 2018  17:53 UTC
Temperature: 23.9°C (75°F)
Dewpoint: 8.9°C (48°F) [RH = 38%]
Pressure (altimeter): 30.31 inches Hg (1026.5 mb)
[Sea-level pressure: 1026.3 mb]
Winds: from the ENE (70 degrees) at 12 MPH (10 knots; 5.2 m/s)
Visibility: 10 or more miles (16+ km)
Ceiling: at least 12,000 feet AGL
Clouds: sky clear below 12,000 feet AGL
Present Weather: no significant weather observed at this time
KPGD 161753Z 07010KT 10SM CLR 24/09 A3031 RMK AO2 SLP263 T02390089 10239 20089 58021

Conditions at: KPGD observed 16 January 2018  16:53 UTC
Temperature: 23.3°C (74°F)
Dewpoint: 10.0°C (50°F) [RH = 43%]
Pressure (altimeter): 30.33 inches Hg (1027.2 mb)
[Sea-level pressure: 1027.1 mb]
Winds: from the ENE (60 degrees) at 13 MPH (11 knots; 5.7 m/s)
Visibility: 10 or more miles (16+ km)
Ceiling: at least 12,000 feet AGL
Clouds: sky clear below 12,000 feet AGL
Present Weather: no significant weather observed at this time
KPGD 161653Z 06011KT 10SM CLR 23/10 A3033 RMK AO2 SLP271 T02330100

Conditions at: KPGD observed 16 January 2018  15:53 UTC
Temperature: 21.1°C (70°F)
Dewpoint: 10.6°C (51°F) [RH = 51%]
Pressure (altimeter): 30.36 inches Hg (1028.2 mb)
[Sea-level pressure: 1028.1 mb]
Winds: from the E (80 degrees) at 15 MPH (13 knots; 6.8 m/s)
gusting to 20 MPH (17 knots; 8.8 m/s)
Visibility: 10 or more miles (16+ km)
Ceiling: at least 12,000 feet AGL
Clouds: sky clear below 12,000 feet AGL
Present Weather: no significant weather observed at this time
KPGD 161553Z 08013G17KT 10SM CLR 21/11 A3036 RMK AO2 SLP281 T02110106

Conditions at: KPGD observed 16 January 2018  14:53 UTC
Temperature: 18.3°C (65°F)
Dewpoint: 10.6°C (51°F) [RH = 61%]
Pressure (altimeter): 30.37 inches Hg (1028.5 mb)
[Sea-level pressure: 1028.4 mb]
Winds: from the ENE (70 degrees) at 12 MPH (10 knots; 5.2 m/s)
Visibility: 10 or more miles (16+ km)
Ceiling: at least 12,000 feet AGL
Clouds: sky clear below 12,000 feet AGL
Present Weather: no significant weather observed at this time
KPGD 161453Z 07010KT 10SM CLR 18/11 A3037 RMK AO2 SLP284 T01830106 53012

Conditions at: KPGD observed 16 January 2018  13:53 UTC
Temperature: 13.9°C (57°F)
Dewpoint: 9.4°C (49°F) [RH = 74%]
Pressure (altimeter): 30.35 inches Hg (1027.9 mb)
[Sea-level pressure: 1027.9 mb]
Winds: from the N (10 degrees) at 7 MPH (6 knots; 3.1 m/s)
Visibility: 10 or more miles (16+ km)
Ceiling: at least 12,000 feet AGL
Clouds: sky clear below 12,000 feet AGL
Present Weather: no significant weather observed at this time
KPGD 161353Z 01006KT 10SM CLR 14/09 A3035 RMK AO2 SLP279 T01390094

Conditions at: KPGD observed 16 January 2018  12:53 UTC
Temperature: 10.0°C (50°F)
Dewpoint: 8.3°C (47°F) [RH = 89%]
Pressure (altimeter): 30.34 inches Hg (1027.5 mb)
[Sea-level pressure: 1027.5 mb]
Winds: from the ENE (60 degrees) at 10 MPH (9 knots; 4.7 m/s)
Visibility: 10 or more miles (16+ km)
Ceiling: at least 12,000 feet AGL
Clouds: sky clear below 12,000 feet AGL
Present Weather: no significant weather observed at this time
KPGD 161253Z 06009KT 10SM CLR 10/08 A3034 RMK AO2 SLP275 T01000083

Conditions at: KPGD observed 16 January 2018  11:53 UTC
Temperature: 8.9°C (48°F)
Dewpoint: 7.2°C (45°F) [RH = 89%]
Pressure (altimeter): 30.34 inches Hg (1027.5 mb)
[Sea-level pressure: 1027.3 mb]
Winds: from the NE (50 degrees) at 8 MPH (7 knots; 3.6 m/s)
Visibility: 10 or more miles (16+ km)
Ceiling: at least 12,000 feet AGL
Clouds: sky clear below 12,000 feet AGL
Present Weather: no significant weather observed at this time
KPGD 161153Z 05007KT 10SM CLR 09/07 A3034 RMK AO2 SLP273 T00890072 10106 20089 53009

Conditions at: KPGD observed 16 January 2018  10:53 UTC
Temperature: 9.4°C (49°F)
Dewpoint: 7.2°C (45°F) [RH = 86%]
Pressure (altimeter): 30.32 inches Hg (1026.8 mb)
[Sea-level pressure: 1026.8 mb]
Winds: from the NNE (30 degrees) at 9 MPH (8 knots; 4.2 m/s)
Visibility: 10 or more miles (16+ km)
Ceiling: at least 12,000 feet AGL
Clouds: sky clear below 12,000 feet AGL
Present Weather: no significant weather observed at this time
KPGD 161053Z 03008KT 10SM CLR 09/07 A3032 RMK AO2 SLP268 T00940072

Conditions at: KPGD observed 16 January 2018  09:53 UTC
Temperature: 9.4°C (49°F)
Dewpoint: 7.8°C (46°F) [RH = 90%]
Pressure (altimeter): 30.31 inches Hg (1026.5 mb)
[Sea-level pressure: 1026.3 mb]
Winds: from the NE (40 degrees) at 12 MPH (10 knots; 5.2 m/s)
Visibility: 10 or more miles (16+ km)
Ceiling: at least 12,000 feet AGL
Clouds: sky clear below 12,000 feet AGL
Present Weather: automated observation with no human augmentation;
there may or may not be significant weather present at this time
KPGD 160953Z AUTO 04010KT 10SM CLR 09/08 A3031 RMK AO2 SLP263 T00940078

Conditions at: KPGD observed 16 January 2018  08:53 UTC
Temperature: 10.0°C (50°F)
Dewpoint: 7.8°C (46°F) [RH = 86%]
Pressure (altimeter): 30.31 inches Hg (1026.5 mb)
[Sea-level pressure: 1026.3 mb]
Winds: from the NE (40 degrees) at 10 MPH (9 knots; 4.7 m/s)
Visibility: 10 or more miles (16+ km)
Ceiling: at least 12,000 feet AGL
Clouds: sky clear below 12,000 feet AGL
Present Weather: automated observation with no human augmentation;
there may or may not be significant weather present at this time
KPGD 160853Z AUTO 04009KT 10SM CLR 10/08 A3031 RMK AO2 SLP263 T01000078 55006

Conditions at: KPGD observed 16 January 2018  07:53 UTC
Temperature: 10.0°C (50°F)
Dewpoint: 7.8°C (46°F) [RH = 86%]
Pressure (altimeter): 30.31 inches Hg (1026.5 mb)
[Sea-level pressure: 1026.3 mb]
Winds: from the NE (40 degrees) at 9 MPH (8 knots; 4.2 m/s)
Visibility: 10 or more miles (16+ km)
Ceiling: at least 12,000 feet AGL
Clouds: sky clear below 12,000 feet AGL
Present Weather: automated observation with no human augmentation;
there may or may not be significant weather present at this time
KPGD 160753Z AUTO 04008KT 10SM CLR 10/08 A3031 RMK AO2 SLP263 T01000078

Conditions at: KPGD observed 16 January 2018  06:53 UTC
Temperature: 10.0°C (50°F)
Dewpoint: 7.8°C (46°F) [RH = 86%]
Pressure (altimeter): 30.32 inches Hg (1026.8 mb)
[Sea-level pressure: 1026.7 mb]
Winds: from the NE (40 degrees) at 10 MPH (9 knots; 4.7 m/s)
Visibility: 10 or more miles (16+ km)
Ceiling: at least 12,000 feet AGL
Clouds: sky clear below 12,000 feet AGL
Present Weather: automated observation with no human augmentation;
there may or may not be significant weather present at this time
KPGD 160653Z AUTO 04009KT 10SM CLR 10/08 A3032 RMK AO2 SLP267 T01000078

Conditions at: KPGD observed 16 January 2018  05:53 UTC
Temperature: 10.6°C (51°F)
Dewpoint: 7.2°C (45°F) [RH = 79%]
Pressure (altimeter): 30.33 inches Hg (1027.2 mb)
[Sea-level pressure: 1026.9 mb]
Winds: from the NNE (30 degrees) at 9 MPH (8 knots; 4.2 m/s)
Visibility: 10 or more miles (16+ km)
Ceiling: at least 12,000 feet AGL
Clouds: sky clear below 12,000 feet AGL
Present Weather: automated observation with no human augmentation;
there may or may not be significant weather present at this time
KPGD 160553Z AUTO 03008KT 10SM CLR 11/07 A3033 RMK AO2 SLP269 T01060072 10172 20106 58005

Conditions at: KPGD observed 16 January 2018  04:53 UTC
Temperature: 11.1°C (52°F)
Dewpoint: 7.2°C (45°F) [RH = 77%]
Pressure (altimeter): 30.34 inches Hg (1027.5 mb)
[Sea-level pressure: 1027.5 mb]
Winds: from the NE (40 degrees) at 7 MPH (6 knots; 3.1 m/s)
Visibility: 10 or more miles (16+ km)
Ceiling: at least 12,000 feet AGL
Clouds: few clouds at 6500 feet AGL
Present Weather: automated observation with no human augmentation;
there may or may not be significant weather present at this time
KPGD 160453Z AUTO 04006KT 10SM FEW065 11/07 A3034 RMK AO2 SLP275 T01110072 402280067

Conditions at: KPGD observed 16 January 2018  03:53 UTC
Temperature: 12.2°C (54°F)
Dewpoint: 7.2°C (45°F) [RH = 71%]
Pressure (altimeter): 30.34 inches Hg (1027.5 mb)
[Sea-level pressure: 1027.6 mb]
Winds: from the NE (40 degrees) at 8 MPH (7 knots; 3.6 m/s)
Visibility: 10 or more miles (16+ km)
Ceiling: at least 12,000 feet AGL
Clouds: few clouds at 6000 feet AGL
Present Weather: automated observation with no human augmentation;
there may or may not be significant weather present at this time
KPGD 160353Z AUTO 04007KT 10SM FEW060 12/07 A3034 RMK AO2 SLP276 T01220072

Conditions at: KPGD observed 16 January 2018  02:53 UTC
Temperature: 12.8°C (55°F)
Dewpoint: 7.8°C (46°F) [RH = 72%]
Pressure (altimeter): 30.34 inches Hg (1027.5 mb)
[Sea-level pressure: 1027.5 mb]
Winds: from the NE (40 degrees) at 9 MPH (8 knots; 4.2 m/s)
Visibility: 10 or more miles (16+ km)
Ceiling: at least 12,000 feet AGL
Clouds: few clouds at 4500 feet AGL
few clouds at 5500 feet AGL
Present Weather: automated observation with no human augmentation;
there may or may not be significant weather present at this time
KPGD 160253Z AUTO 04008KT 10SM FEW045 FEW055 13/08 A3034 RMK AO2 SLP275 T01280078 51015

Conditions at: KPGD observed 16 January 2018  01:53 UTC
Temperature: 14.4°C (58°F)
Dewpoint: 8.9°C (48°F) [RH = 70%]
Pressure (altimeter): 30.33 inches Hg (1027.2 mb)
[Sea-level pressure: 1027.1 mb]
Winds: from the NE (50 degrees) at 12 MPH (10 knots; 5.2 m/s)
Visibility: 10 or more miles (16+ km)
Ceiling: at least 12,000 feet AGL
Clouds: sky clear below 12,000 feet AGL
Present Weather: no significant weather observed at this time
KPGD 160153Z 05010KT 10SM CLR 14/09 A3033 RMK AO2 SLP271 T01440089

Conditions at: KPGD observed 16 January 2018  00:53 UTC
Temperature: 15.6°C (60°F)
Dewpoint: 10.0°C (50°F) [RH = 69%]
Pressure (altimeter): 30.31 inches Hg (1026.5 mb)
[Sea-level pressure: 1026.5 mb]
Winds: from the NE (50 degrees) at 10 MPH (9 knots; 4.7 m/s)
Visibility: 10 or more miles (16+ km)
Ceiling: 4200 feet AGL
Clouds: broken clouds at 4200 feet AGL
Present Weather: no significant weather observed at this time
KPGD 160053Z 05009KT 10SM BKN042 16/10 A3031 RMK AO2 SLP265 T01560100

Conditions at: KPGD observed 15 January 2018  23:53 UTC
Temperature: 17.2°C (63°F)
Dewpoint: 10.0°C (50°F) [RH = 63%]
Pressure (altimeter): 30.30 inches Hg (1026.2 mb)
[Sea-level pressure: 1026.0 mb]
Winds: from the NNE (30 degrees) at 9 MPH (8 knots; 4.2 m/s)
Visibility: 10 or more miles (16+ km)
Ceiling: 5500 feet AGL
Clouds: scattered clouds at 4000 feet AGL
broken clouds at 5500 feet AGL
Present Weather: no significant weather observed at this time
KPGD 152353Z 03008KT 10SM SCT040 BKN055 17/10 A3030 RMK AO2 SLP260 T01720100 10228 20172 53017

Conditions at: KPGD observed 15 January 2018  22:53 UTC
Temperature: 19.4°C (67°F)
Dewpoint: 10.0°C (50°F) [RH = 55%]
Pressure (altimeter): 30.28 inches Hg (1025.5 mb)
[Sea-level pressure: 1025.4 mb]
Winds: from the NE (40 degrees) at 12 MPH (10 knots; 5.2 m/s)
Visibility: 10 or more miles (16+ km)
Ceiling: 4600 feet AGL
Clouds: broken clouds at 4600 feet AGL
Present Weather: no significant weather observed at this time
KPGD 152253Z 04010KT 10SM BKN046 19/10 A3028 RMK AO2 SLP254 T01940100